Time;durP1;ratioP1;P1;durP2;ratioP2;P2;SDS_P1;SDS_P2;PMS_P1;PMS_P2;Temp;Humidity;BMP_temperature;BMP_pressure;BME280_temperature;BME280_humidity;BME280_pressure;Samples;Min_cycle;Max_cycle;Signal;HPM_P1;HPM_P2
2021/12/07 00:00:17;;;;;;;4.35;3.55;;;3.60;86.80;;;;;;4988537;28;20050;-76
2021/12/07 00:02:43;;;;;;;4.72;3.80;;;3.70;87.00;;;;;;4973354;28;20033;-76
2021/12/07 00:05:09;;;;;;;5.18;3.90;;;3.70;86.90;;;;;;4981742;28;20086;-76
2021/12/07 00:07:34;;;;;;;4.40;3.28;;;3.80;86.80;;;;;;4987876;28;20483;-76
2021/12/07 00:10:00;;;;;;;5.45;4.28;;;3.60;86.60;;;;;;4971564;28;20037;-75
2021/12/07 00:12:33;;;;;;;6.25;4.32;;;3.70;86.60;;;;;;4972488;28;20026;-75
2021/12/07 00:15:02;;;;;;;5.30;4.40;;;3.70;86.60;;;;;;4972102;28;20477;-76
2021/12/07 00:17:28;;;;;;;5.57;4.50;;;3.60;86.50;;;;;;4974409;28;20691;-76
2021/12/07 00:19:53;;;;;;;5.22;3.72;;;3.60;86.60;;;;;;4984910;28;20026;-75
2021/12/07 00:22:20;;;;;;;5.63;4.38;;;3.50;86.50;;;;;;4972030;28;20038;-76
2021/12/07 00:24:45;;;;;;;4.13;3.35;;;3.50;86.40;;;;;;4988053;28;20089;-75
2021/12/07 00:27:11;;;;;;;5.20;4.35;;;3.50;86.60;;;;;;4990620;28;20022;-76
2021/12/07 00:29:36;;;;;;;4.22;3.75;;;3.50;86.30;;;;;;4979394;28;20033;-76
2021/12/07 00:32:16;;;;;;;4.53;3.58;;;3.50;86.50;;;;;;4999019;28;20097;-75
2021/12/07 00:35:00;;;;;;;3.97;3.13;;;3.50;86.50;;;;;;4991944;28;20121;-75
2021/12/07 00:37:28;;;;;;;2.00;1.80;;;3.50;86.30;;;;;;4986580;28;20019;-75
2021/12/07 00:39:54;;;;;;;2.25;2.05;;;3.50;86.40;;;;;;4976869;28;20137;-75
2021/12/07 00:42:21;;;;;;;2.40;2.03;;;3.40;86.40;;;;;;4981908;28;20133;-75
2021/12/07 00:44:48;;;;;;;3.72;2.75;;;3.40;86.50;;;;;;4990092;28;20030;-75
2021/12/07 00:47:14;;;;;;;3.00;2.50;;;3.40;86.50;;;;;;4989946;28;20077;-76
2021/12/07 00:49:40;;;;;;;2.95;2.50;;;3.50;86.70;;;;;;4991422;28;20034;-76
2021/12/07 00:52:06;;;;;;;2.42;2.22;;;3.50;86.60;;;;;;4990650;28;20034;-75
2021/12/07 00:54:32;;;;;;;2.08;1.88;;;3.60;86.70;;;;;;4975871;28;20036;-76
2021/12/07 00:56:58;;;;;;;2.85;2.58;;;3.60;86.60;;;;;;4991132;28;20022;-76
2021/12/07 00:59:25;;;;;;;4.28;3.53;;;3.70;86.60;;;;;;4989433;28;20023;-76
2021/12/07 01:01:51;;;;;;;4.25;3.40;;;3.60;86.50;;;;;;4990470;28;20023;-76
2021/12/07 01:04:17;;;;;;;4.50;3.28;;;3.70;86.60;;;;;;4989581;28;20042;-76
2021/12/07 01:07:02;;;;;;;3.67;3.08;;;3.60;86.60;;;;;;4990639;28;20094;-76
2021/12/07 01:25:55;;;;;;;4.25;3.22;;;3.80;86.70;;;;;;4982716;28;20052;-76
2021/12/07 01:28:28;;;;;;;4.63;3.80;;;3.80;86.70;;;;;;4990751;28;20094;-76
2021/12/07 01:31:12;;;;;;;;;;;3.80;86.70;;;;;;4991572;28;20027;-76
2021/12/07 02:00:17;;;;;;;4.20;3.47;;;3.80;86.70;;;;;;4993859;28;20037;-76
2021/12/07 02:02:43;;;;;;;5.53;4.20;;;3.80;86.80;;;;;;4993014;28;20026;-76
2021/12/07 02:05:10;;;;;;;3.72;3.35;;;3.90;86.90;;;;;;4993060;28;20069;-77
2021/12/07 02:07:36;;;;;;;6.47;5.07;;;3.90;86.90;;;;;;4992482;28;20025;-76
2021/12/07 02:10:08;;;;;;;6.00;4.60;;;4.00;86.80;;;;;;4974604;28;20027;-76
2021/12/07 02:12:46;;;;;;;5.93;4.32;;;4.00;86.80;;;;;;4974795;28;20034;-77
2021/12/07 02:15:14;;;;;;;6.03;4.60;;;4.00;86.80;;;;;;5003614;28;20049;-76
2021/12/07 02:17:40;;;;;;;6.38;4.82;;;4.10;86.80;;;;;;4993823;28;20039;-76
2021/12/07 02:20:07;;;;;;;6.80;5.22;;;4.20;86.70;;;;;;4993731;28;20022;-77
2021/12/07 02:22:34;;;;;;;6.63;5.18;;;4.20;86.70;;;;;;4992760;28;20033;-76
2021/12/07 02:24:59;;;;;;;7.20;5.47;;;4.10;86.60;;;;;;4972290;28;20034;-76
2021/12/07 02:27:25;;;;;;;6.47;4.85;;;4.20;86.80;;;;;;4973669;28;20018;-76
2021/12/07 02:29:51;;;;;;;6.50;4.90;;;4.20;86.80;;;;;;4992794;28;20034;-76
2021/12/07 02:32:16;;;;;;;5.65;4.45;;;4.20;86.70;;;;;;4992680;28;20076;-75
2021/12/07 02:34:53;;;;;;;6.78;5.20;;;4.20;86.70;;;;;;4994029;28;20088;-75
2021/12/07 02:37:22;;;;;;;7.50;5.20;;;4.20;86.60;;;;;;4994098;28;20023;-76
2021/12/07 02:39:49;;;;;;;7.70;5.90;;;4.30;86.70;;;;;;4992565;28;20030;-76
2021/12/07 02:42:15;;;;;;;5.82;4.20;;;4.30;86.70;;;;;;4983648;28;20097;-75
2021/12/07 02:44:41;;;;;;;9.50;6.60;;;4.30;86.70;;;;;;4973528;28;20031;-76
2021/12/07 02:47:06;;;;;;;6.70;5.20;;;4.40;86.60;;;;;;4974819;28;20039;-76
2021/12/07 02:49:32;;;;;;;7.63;6.07;;;4.30;86.50;;;;;;4990009;28;20027;-76
2021/12/07 02:51:58;;;;;;;9.98;7.57;;;4.40;86.60;;;;;;5004605;28;20473;-76
2021/12/07 02:54:23;;;;;;;8.15;5.68;;;4.40;86.60;;;;;;4992222;28;20044;-76
2021/12/07 02:56:51;;;;;;;6.45;5.13;;;4.40;86.60;;;;;;4992456;28;20030;-76
2021/12/07 02:59:18;;;;;;;9.38;6.72;;;4.40;86.60;;;;;;4983537;28;20051;-76
2021/12/07 03:01:49;;;;;;;10.90;6.45;;;4.30;86.50;;;;;;4985385;28;20430;-76
2021/12/07 03:04:19;;;;;;;9.13;6.70;;;4.40;86.70;;;;;;4990733;28;20040;-76
2021/12/07 03:09:47;;;;;;;10.15;7.03;;;4.40;86.60;;;;;;4993914;28;20066;-77
2021/12/07 03:26:09;;;;;;;8.60;6.00;;;4.50;86.60;;;;;;4991983;28;20077;-77
2021/12/07 03:28:41;;;;;;;7.25;4.70;;;4.60;86.50;;;;;;4992562;28;20033;-77
2021/12/07 03:31:08;;;;;;;10.40;5.25;;;4.70;86.50;;;;;;4991481;28;20022;-76
2021/12/07 03:33:35;;;;;;;7.30;4.43;;;4.70;86.40;;;;;;4975822;28;20042;-77
2021/12/07 03:36:02;;;;;;;6.80;4.38;;;4.70;86.30;;;;;;4982595;28;20022;-76
2021/12/07 03:38:28;;;;;;;9.60;4.78;;;4.80;86.40;;;;;;4984906;28;20034;-76
2021/12/07 03:40:53;;;;;;;9.88;4.55;;;4.80;87.00;;;;;;4991552;28;20030;-76
2021/12/07 03:43:20;;;;;;;8.68;4.82;;;4.80;86.40;;;;;;4991195;28;20014;-76
2021/12/07 03:45:45;;;;;;;8.48;4.80;;;4.80;86.30;;;;;;4980985;28;20129;-76
2021/12/07 03:48:12;;;;;;;9.77;5.75;;;4.80;86.30;;;;;;4972011;28;20568;-77
2021/12/07 03:50:38;;;;;;;8.13;4.70;;;4.80;86.30;;;;;;4971674;28;20390;-76
2021/12/07 03:53:04;;;;;;;6.75;4.13;;;4.80;86.30;;;;;;4981579;28;20023;-77
2021/12/07 03:55:30;;;;;;;5.15;3.67;;;4.80;86.40;;;;;;4982994;28;20484;-77
2021/12/07 03:57:55;;;;;;;7.05;4.10;;;4.80;86.30;;;;;;4972577;28;20023;-77
2021/12/07 04:00:24;;;;;;;7.80;3.78;;;4.80;86.30;;;;;;4990120;28;20393;-76
2021/12/07 04:02:53;;;;;;;8.70;3.47;;;4.80;86.40;;;;;;4997337;28;20050;-77
2021/12/07 04:05:20;;;;;;;10.00;3.90;;;4.80;86.50;;;;;;4983937;28;20042;-77
2021/12/07 04:07:46;;;;;;;9.02;4.38;;;4.80;86.50;;;;;;4979502;28;20026;-76
2021/12/07 04:10:14;;;;;;;8.10;3.72;;;4.80;86.40;;;;;;4985616;28;20153;-76
2021/12/07 04:12:40;;;;;;;7.80;3.17;;;4.80;86.50;;;;;;4984657;28;20035;-76
2021/12/07 04:15:08;;;;;;;7.18;3.72;;;4.80;86.40;;;;;;4986431;28;20580;-77
2021/12/07 04:17:34;;;;;;;8.45;3.75;;;4.80;86.50;;;;;;4991393;28;20068;-77
2021/12/07 04:20:00;;;;;;;6.20;3.00;;;4.80;86.50;;;;;;4976839;28;20030;-76
2021/12/07 04:22:26;;;;;;;6.18;2.78;;;4.90;86.60;;;;;;4986923;28;20038;-76
2021/12/07 04:24:52;;;;;;;4.82;2.40;;;4.90;86.60;;;;;;4990419;28;20049;-76
2021/12/07 04:27:18;;;;;;;6.25;2.67;;;4.90;86.60;;;;;;4982564;28;20585;-77
2021/12/07 04:29:44;;;;;;;5.35;2.80;;;5.00;86.50;;;;;;4977890;28;20106;-76
2021/12/07 04:32:10;;;;;;;3.97;2.55;;;5.00;86.40;;;;;;4984762;28;20053;-76
2021/12/07 04:34:35;;;;;;;6.97;2.50;;;5.00;86.50;;;;;;4988996;28;20520;-76
2021/12/07 04:37:01;;;;;;;3.95;2.25;;;5.10;87.20;;;;;;4990448;28;20057;-76
2021/12/07 04:39:27;;;;;;;4.95;2.58;;;5.10;86.50;;;;;;4990521;28;20034;-76
2021/12/07 04:41:53;;;;;;;5.68;2.03;;;5.10;86.40;;;;;;4978949;28;20023;-76
2021/12/07 04:44:22;;;;;;;5.43;2.58;;;5.10;86.50;;;;;;4971332;28;20038;-81
2021/12/07 05:00:20;;;;;;;3.05;1.80;;;5.20;86.50;;;;;;4996482;28;20497;-78
2021/12/07 05:02:53;;;;;;;5.30;2.17;;;5.20;86.50;;;;;;4973947;28;20481;-77
2021/12/07 05:05:19;;;;;;;;;;;5.20;86.50;;;;;;4970470;28;20704;-77
2021/12/07 05:07:52;;;;;;;3.17;1.58;;;5.20;86.40;;;;;;4980966;28;19909;-77
2021/12/07 05:10:25;;;;;;;4.00;1.80;;;5.20;86.50;;;;;;4991962;28;20030;-77
2021/12/07 05:15:33;;;;;;;4.32;2.10;;;5.10;86.50;;;;;;4987990;28;20034;-77
2021/12/07 05:18:23;;;;;;;4.82;1.73;;;5.20;87.20;;;;;;4988510;28;20018;-77
2021/12/07 05:34:44;;;;;;;4.85;2.10;;;5.00;86.60;;;;;;4973733;28;20037;-78
2021/12/07 05:39:55;;;;;;;5.47;2.83;;;5.00;86.70;;;;;;4984121;28;20107;-80
2021/12/07 05:42:24;;;;;;;4.30;2.00;;;5.00;86.70;;;;;;4989827;28;20027;-76
2021/12/07 05:44:54;;;;;;;6.40;2.15;;;5.00;86.70;;;;;;4988791;28;20062;-76
2021/12/07 05:47:20;;;;;;;6.07;2.28;;;5.00;86.70;;;;;;4990692;28;20057;-77
2021/12/07 05:49:46;;;;;;;7.72;2.75;;;4.90;86.70;;;;;;4984712;28;20111;-76
2021/12/07 05:52:11;;;;;;;8.13;2.88;;;4.80;86.60;;;;;;4988787;28;20042;-76
2021/12/07 05:54:37;;;;;;;8.07;2.70;;;4.80;86.80;;;;;;4978749;28;20461;-76
2021/12/07 05:57:04;;;;;;;6.57;2.20;;;4.80;86.90;;;;;;4970310;28;20026;-76
2021/12/07 05:59:29;;;;;;;5.78;2.33;;;4.70;86.90;;;;;;4970541;28;20069;-77
2021/12/07 06:01:55;;;;;;;7.50;2.97;;;4.70;87.00;;;;;;4986866;28;20416;-77
2021/12/07 06:04:20;;;;;;;8.90;2.63;;;4.70;87.00;;;;;;4980511;28;20047;-77
2021/12/07 06:06:47;;;;;;;8.18;2.78;;;4.70;87.00;;;;;;4974616;28;20030;-79
2021/12/07 06:09:13;;;;;;;7.22;2.90;;;4.70;87.20;;;;;;4984482;28;20022;-88
2021/12/07 06:11:40;;;;;;;9.23;2.92;;;4.70;87.10;;;;;;4990879;28;20507;-87
2021/12/07 06:14:05;;;;;;;10.30;2.97;;;4.70;87.10;;;;;;4985943;28;20105;-87
2021/12/07 06:16:31;;;;;;;7.47;2.80;;;4.70;87.20;;;;;;4986891;28;20111;-87
2021/12/07 06:18:58;;;;;;;7.00;2.50;;;4.70;87.10;;;;;;4988618;28;20386;-85
2021/12/07 06:21:25;;;;;;;4.68;2.25;;;4.70;87.10;;;;;;4989404;28;20109;-87
2021/12/07 06:23:52;;;;;;;6.22;3.05;;;4.60;87.10;;;;;;4987514;28;20473;-86
2021/12/07 06:26:17;;;;;;;10.60;3.60;;;4.60;87.20;;;;;;4984023;28;20031;-90
2021/12/07 06:28:43;;;;;;;7.65;2.80;;;4.60;87.20;;;;;;4989311;28;20033;-77
2021/12/07 06:31:08;;;;;;;7.20;2.97;;;4.70;87.30;;;;;;4984917;28;20064;-77
2021/12/07 06:33:34;;;;;;;7.72;3.33;;;4.60;87.30;;;;;;4990442;28;20026;-77
2021/12/07 06:36:03;;;;;;;9.38;3.70;;;4.60;87.30;;;;;;4998915;28;20026;-76
2021/12/07 06:38:31;;;;;;;10.57;3.40;;;4.60;87.30;;;;;;4995670;28;20022;-78
2021/12/07 06:40:58;;;;;;;8.68;3.42;;;4.60;87.30;;;;;;4991528;28;20095;-77
2021/12/07 06:43:23;;;;;;;7.65;3.10;;;4.60;87.30;;;;;;4998098;28;20030;-88
2021/12/07 06:45:50;;;;;;;6.88;3.40;;;4.70;87.30;;;;;;4986824;28;20116;-80
2021/12/07 06:48:15;;;;;;;12.57;3.85;;;4.60;87.30;;;;;;4996778;28;20058;-75
2021/12/07 06:50:42;;;;;;;9.90;3.65;;;4.60;87.20;;;;;;4980992;28;20065;-77
2021/12/07 06:53:08;;;;;;;8.45;3.08;;;4.50;87.30;;;;;;4985258;28;20077;-85
2021/12/07 06:55:33;;;;;;;8.45;3.10;;;4.60;87.40;;;;;;4987369;28;20117;-93
2021/12/07 06:57:59;;;;;;;9.98;3.30;;;4.60;87.40;;;;;;4981096;28;20113;-83
2021/12/07 07:00:25;;;;;;;9.07;3.10;;;4.50;87.30;;;;;;4973337;28;20393;-87
2021/12/07 07:02:53;;;;;;;8.52;3.30;;;4.50;87.40;;;;;;4985437;28;20037;-84
2021/12/07 07:05:19;;;;;;;6.68;3.22;;;4.50;87.50;;;;;;4988618;28;20077;-85
2021/12/07 07:07:45;;;;;;;6.10;2.92;;;4.50;87.50;;;;;;4991762;28;20058;-85
2021/12/07 07:10:18;;;;;;;7.22;3.38;;;4.50;87.50;;;;;;4994877;28;20022;-83
2021/12/07 07:12:44;;;;;;;8.00;2.95;;;4.50;87.50;;;;;;4981962;28;20042;-82
2021/12/07 07:15:10;;;;;;;7.68;2.75;;;4.50;87.50;;;;;;4988352;28;20112;-89
2021/12/07 07:17:36;;;;;;;6.85;2.75;;;4.50;87.60;;;;;;4990066;28;20162;-82
2021/12/07 07:20:05;;;;;;;5.65;2.72;;;4.50;87.50;;;;;;4986146;28;20030;-81
2021/12/07 07:22:30;;;;;;;8.27;2.90;;;4.50;87.60;;;;;;4991130;28;20034;-82
2021/12/07 07:24:56;;;;;;;9.73;3.83;;;4.50;87.60;;;;;;4994523;28;20037;-81
2021/12/07 07:27:21;;;;;;;7.53;3.20;;;4.50;87.50;;;;;;4988196;28;20054;-82
2021/12/07 07:29:47;;;;;;;5.72;2.88;;;4.40;87.40;;;;;;4980865;28;20770;-84
2021/12/07 07:32:13;;;;;;;6.18;2.78;;;4.40;87.50;;;;;;4989276;28;20045;-78
2021/12/07 07:34:38;;;;;;;6.85;2.92;;;4.40;87.50;;;;;;4991480;28;20025;-79
2021/12/07 07:37:04;;;;;;;9.73;3.13;;;4.40;87.70;;;;;;4989859;28;20022;-79
2021/12/07 07:39:31;;;;;;;8.95;3.38;;;4.30;87.60;;;;;;4987165;28;20035;-81
2021/12/07 07:41:56;;;;;;;6.88;2.60;;;4.30;87.60;;;;;;4980873;28;20025;-82
2021/12/07 07:44:22;;;;;;;7.15;2.83;;;4.30;87.70;;;;;;4985721;28;20045;-82
2021/12/07 07:46:47;;;;;;;6.03;2.50;;;4.40;87.80;;;;;;4982346;28;20033;-82
2021/12/07 07:49:13;;;;;;;7.35;2.88;;;4.40;87.80;;;;;;4989557;28;20494;-82
2021/12/07 07:51:39;;;;;;;8.13;2.92;;;4.40;87.70;;;;;;4982184;28;20040;-81
2021/12/07 07:54:05;;;;;;;8.65;3.10;;;4.30;87.60;;;;;;4990588;28;20129;-82
2021/12/07 07:56:32;;;;;;;12.85;3.70;;;4.40;87.70;;;;;;4983504;28;20030;-81
2021/12/07 07:58:59;;;;;;;10.95;3.78;;;4.40;87.70;;;;;;4980481;28;20126;-81
2021/12/07 08:01:29;;;;;;;8.93;3.67;;;4.30;87.60;;;;;;4983180;28;20065;-81
2021/12/07 08:03:54;;;;;;;9.95;3.45;;;4.30;87.60;;;;;;4985719;28;20088;-81
2021/12/07 08:06:20;;;;;;;8.68;3.78;;;4.30;87.70;;;;;;4986668;28;20030;-82
2021/12/07 08:08:46;;;;;;;11.30;3.75;;;4.30;87.70;;;;;;4984766;28;20026;-82
2021/12/07 08:11:13;;;;;;;9.15;3.47;;;4.30;87.70;;;;;;4981772;28;20039;-82
2021/12/07 08:13:39;;;;;;;7.95;3.47;;;4.30;87.80;;;;;;4981823;28;20516;-81
2021/12/07 08:16:15;;;;;;;13.82;4.88;;;4.30;87.80;;;;;;4978118;28;20489;-83
2021/12/07 08:18:41;;;;;;;9.85;3.78;;;4.30;87.80;;;;;;4981667;28;20093;-86
2021/12/07 08:21:07;;;;;;;10.20;4.25;;;4.30;87.80;;;;;;4988248;28;20053;-84
2021/12/07 08:23:33;;;;;;;6.57;3.08;;;4.20;87.80;;;;;;4982104;28;20513;-85
2021/12/07 08:25:58;;;;;;;7.32;3.38;;;4.30;88.00;;;;;;4978018;28;20084;-84
2021/12/07 08:28:24;;;;;;;9.48;3.92;;;4.20;87.90;;;;;;4984985;28;20027;-84
2021/12/07 08:30:50;;;;;;;7.28;3.30;;;4.20;87.90;;;;;;4983224;28;20756;-87
2021/12/07 08:33:15;;;;;;;10.07;2.90;;;4.20;88.00;;;;;;4984196;28;20031;-85
2021/12/07 08:35:41;;;;;;;8.05;2.97;;;4.20;88.10;;;;;;4986657;28;20018;-85
2021/12/07 08:38:07;;;;;;;11.38;4.10;;;4.20;88.10;;;;;;4988803;28;20130;-85
2021/12/07 08:40:34;;;;;;;7.68;3.50;;;4.20;88.20;;;;;;4986990;28;20038;-84
2021/12/07 08:43:00;;;;;;;10.45;3.95;;;4.20;88.20;;;;;;4986868;28;20064;-84
2021/12/07 08:45:27;;;;;;;11.50;3.63;;;4.20;88.20;;;;;;4982710;28;20114;-84
2021/12/07 08:47:54;;;;;;;11.43;3.30;;;4.20;88.20;;;;;;4976903;28;20033;-84
2021/12/07 08:50:27;;;;;;;12.40;4.10;;;4.20;88.30;;;;;;4989163;28;20445;-85
2021/12/07 08:52:55;;;;;;;8.60;3.70;;;4.20;88.30;;;;;;4977447;28;20029;-83
2021/12/07 09:00:52;;;;;;;12.40;4.30;;;4.20;88.40;;;;;;4984364;28;20120;-82
2021/12/07 09:03:18;;;;;;;7.90;4.15;;;4.20;88.40;;;;;;4976534;28;20023;-82
2021/12/07 09:05:43;;;;;;;14.13;5.00;;;4.30;88.40;;;;;;4975874;28;20554;-84
2021/12/07 09:08:09;;;;;;;7.00;3.95;;;4.30;88.50;;;;;;4977340;28;20405;-83
2021/12/07 09:10:34;;;;;;;11.18;3.85;;;4.30;88.60;;;;;;4979193;28;20038;-82
2021/12/07 09:13:01;;;;;;;10.70;3.95;;;4.40;88.60;;;;;;4981968;28;20763;-83
2021/12/07 09:15:27;;;;;;;6.93;4.07;;;4.40;88.50;;;;;;4978794;28;20077;-83
2021/12/07 09:17:53;;;;;;;9.82;4.28;;;4.40;88.40;;;;;;4984872;28;20034;-83
2021/12/07 09:20:18;;;;;;;8.88;3.28;;;4.40;88.40;;;;;;4981638;28;20027;-84
2021/12/07 09:22:46;;;;;;;11.95;4.95;;;4.40;88.40;;;;;;4983615;28;20050;-84
2021/12/07 09:25:13;;;;;;;9.68;4.70;;;4.40;88.30;;;;;;4988473;28;20073;-84
2021/12/07 09:27:39;;;;;;;12.98;5.38;;;4.40;88.40;;;;;;4984779;28;20502;-84
2021/12/07 09:30:07;;;;;;;11.25;5.55;;;4.40;88.30;;;;;;4983222;28;20065;-85
2021/12/07 09:32:32;;;;;;;11.65;5.20;;;4.40;88.40;;;;;;4984372;28;20031;-85
2021/12/07 09:34:58;;;;;;;12.48;5.35;;;4.40;88.40;;;;;;4979396;28;20026;-85
2021/12/07 09:37:24;;;;;;;13.23;6.13;;;4.40;88.50;;;;;;4983374;28;20026;-84
2021/12/07 09:39:50;;;;;;;11.45;5.22;;;4.40;88.50;;;;;;4983845;28;20405;-86
2021/12/07 09:42:15;;;;;;;12.77;6.13;;;4.40;88.60;;;;;;4978534;28;20405;-86
2021/12/07 09:44:41;;;;;;;9.82;4.10;;;4.40;88.60;;;;;;4977695;28;20047;-85
2021/12/07 09:47:07;;;;;;;16.52;7.47;;;4.40;88.60;;;;;;4985859;28;20531;-84
2021/12/07 09:49:32;;;;;;;16.38;6.97;;;4.50;88.60;;;;;;4982020;28;20054;-83
2021/12/07 09:51:58;;;;;;;14.50;5.90;;;4.50;88.70;;;;;;4986476;28;20039;-83
2021/12/07 09:54:24;;;;;;;16.98;6.70;;;4.50;88.70;;;;;;4982313;28;20039;-82
2021/12/07 09:56:49;;;;;;;14.40;5.93;;;4.50;88.60;;;;;;4980230;28;20117;-82
2021/12/07 09:59:15;;;;;;;18.52;7.80;;;4.60;88.70;;;;;;4989264;28;20038;-84
2021/12/07 10:01:42;;;;;;;15.95;6.22;;;4.60;88.70;;;;;;4985096;28;20746;-85
2021/12/07 10:04:08;;;;;;;14.20;5.97;;;4.60;88.70;;;;;;4985104;28;20478;-86
2021/12/07 10:06:34;;;;;;;11.02;5.68;;;4.60;88.70;;;;;;4994506;28;20014;-83
2021/12/07 10:09:00;;;;;;;13.02;6.40;;;4.50;88.70;;;;;;4997428;28;20018;-85
2021/12/07 10:11:26;;;;;;;17.20;7.80;;;4.50;88.70;;;;;;4995423;28;20100;-85
2021/12/07 10:13:53;;;;;;;13.30;6.82;;;4.60;88.80;;;;;;4991053;28;20438;-85
2021/12/07 10:16:21;;;;;;;17.15;6.90;;;4.60;88.90;;;;;;4986262;28;20078;-83
2021/12/07 10:18:47;;;;;;;17.85;6.45;;;4.60;88.90;;;;;;4985253;28;20126;-83
2021/12/07 10:21:16;;;;;;;17.77;8.55;;;4.60;88.80;;;;;;4984966;28;20117;-83
2021/12/07 10:23:45;;;;;;;15.80;7.10;;;4.60;89.30;;;;;;4983943;28;20046;-83
2021/12/07 10:26:25;;;;;;;10.55;5.60;;;4.70;88.80;;;;;;4977850;28;20109;-82
2021/12/07 10:28:53;;;;;;;12.23;6.45;;;4.70;88.90;;;;;;4976971;28;20053;-80
2021/12/07 10:31:30;;;;;;;14.88;7.05;;;4.70;88.70;;;;;;4979274;28;20022;-81
2021/12/07 10:33:59;;;;;;;12.48;5.38;;;4.70;88.80;;;;;;4977602;28;20078;-84
2021/12/07 10:36:32;;;;;;;17.23;7.05;;;4.80;88.80;;;;;;4976573;28;20393;-82
2021/12/07 10:39:03;;;;;;;14.77;6.70;;;4.80;88.80;;;;;;4982274;28;20500;-86
2021/12/07 10:41:33;;;;;;;16.20;7.38;;;4.80;88.80;;;;;;4986750;28;20481;-85
2021/12/07 10:44:07;;;;;;;15.43;5.85;;;4.80;88.80;;;;;;4979865;28;20531;-83
2021/12/07 10:46:43;;;;;;;11.07;4.63;;;4.80;88.90;;;;;;4976625;28;20064;-82
2021/12/07 10:49:11;;;;;;;16.33;6.07;;;4.90;88.90;;;;;;4981419;28;20030;-84
2021/12/07 10:51:37;;;;;;;16.92;6.57;;;4.90;88.90;;;;;;4989519;28;20117;-83
2021/12/07 10:54:04;;;;;;;13.93;6.40;;;5.00;88.90;;;;;;4990626;28;20109;-82
2021/12/07 10:56:32;;;;;;;8.63;4.63;;;5.00;88.90;;;;;;4989226;28;20030;-82
2021/12/07 10:59:06;;;;;;;14.15;5.38;;;5.00;88.80;;;;;;4986356;28;20038;-83
2021/12/07 11:01:44;;;;;;;11.70;4.78;;;5.10;88.90;;;;;;4994560;28;20034;-82
2021/12/07 11:04:22;;;;;;;11.75;4.78;;;5.10;88.70;;;;;;4994448;28;20039;-82
2021/12/07 11:07:05;;;;;;;8.63;4.18;;;5.20;88.70;;;;;;4985040;28;20062;-86
2021/12/07 11:09:45;;;;;;;11.40;4.78;;;5.30;88.60;;;;;;4993828;28;20030;-83
2021/12/07 11:12:14;;;;;;;15.50;5.68;;;5.30;88.50;;;;;;4995760;28;20036;-83
2021/12/07 11:14:52;;;;;;;10.85;4.65;;;5.40;88.50;;;;;;4992494;28;20504;-82
2021/12/07 11:17:24;;;;;;;10.07;4.80;;;5.40;88.50;;;;;;4986385;28;20038;-83
2021/12/07 11:19:51;;;;;;;10.77;4.80;;;5.40;88.40;;;;;;4987520;28;20119;-87
2021/12/07 11:22:30;;;;;;;12.40;3.97;;;5.50;88.40;;;;;;4979592;28;20019;-84
2021/12/07 11:25:00;;;;;;;10.50;4.65;;;5.50;88.40;;;;;;4983953;28;20060;-84
2021/12/07 11:30:16;;;;;;;7.40;3.58;;;5.70;88.40;;;;;;4987901;28;20041;-83
2021/12/07 11:32:55;;;;;;;13.40;5.22;;;5.70;88.20;;;;;;4987189;28;20481;-84
2021/12/07 11:35:34;;;;;;;13.32;4.50;;;5.80;88.10;;;;;;4985994;28;20026;-83
2021/12/07 11:38:03;;;;;;;9.68;3.72;;;5.80;88.00;;;;;;4983309;28;20061;-82
2021/12/07 11:40:36;;;;;;;7.97;3.67;;;5.90;87.90;;;;;;4983435;28;20281;-82
2021/12/07 11:43:14;;;;;;;7.53;3.70;;;6.10;88.00;;;;;;4989511;28;20046;-82
2021/12/07 11:45:44;;;;;;;7.47;3.40;;;6.10;87.90;;;;;;4982453;28;20061;-84
2021/12/07 11:48:10;;;;;;;11.27;3.75;;;6.10;87.80;;;;;;4978125;28;20027;-83
2021/12/07 11:50:44;;;;;;;13.35;4.95;;;6.20;87.70;;;;;;4984087;28;20522;-83
2021/12/07 11:53:19;;;;;;;7.63;3.45;;;6.20;87.50;;;;;;4988926;28;20638;-83
2021/12/07 11:55:50;;;;;;;8.57;4.18;;;6.20;87.40;;;;;;4989046;28;20025;-82
2021/12/07 11:58:18;;;;;;;10.85;4.15;;;6.20;87.30;;;;;;4985431;28;20026;-84
2021/12/07 12:00:47;;;;;;;14.98;5.97;;;6.20;87.10;;;;;;4986417;28;20039;-83
2021/12/07 12:03:15;;;;;;;14.77;4.90;;;6.20;87.10;;;;;;4986577;28;20549;-84
2021/12/07 12:05:43;;;;;;;10.55;4.32;;;6.20;87.00;;;;;;4982405;28;20115;-86
2021/12/07 12:08:09;;;;;;;12.90;4.40;;;6.20;86.90;;;;;;4986871;28;20093;-84
2021/12/07 12:10:42;;;;;;;13.35;4.57;;;6.30;86.80;;;;;;4980383;28;20030;-85
2021/12/07 12:13:40;;;;;;;10.70;4.50;;;6.30;86.80;;;;;;4985596;28;20041;-84
2021/12/07 12:16:25;;;;;;;9.90;3.78;;;6.40;86.80;;;;;;4988332;28;20039;-83
2021/12/07 12:19:09;;;;;;;11.85;4.35;;;6.40;86.70;;;;;;4979680;28;20129;-85
2021/12/07 12:21:47;;;;;;;8.80;3.47;;;6.40;86.60;;;;;;4983541;28;20109;-84
2021/12/07 12:24:21;;;;;;;7.60;3.47;;;6.50;86.50;;;;;;4987122;28;20058;-84
2021/12/07 12:26:49;;;;;;;6.68;2.95;;;6.60;86.40;;;;;;4983684;28;20031;-84
2021/12/07 12:29:20;;;;;;;7.72;3.40;;;6.60;86.30;;;;;;4987342;28;20026;-85
2021/12/07 12:31:51;;;;;;;8.32;3.95;;;6.60;86.30;;;;;;4983808;28;20690;-84
2021/12/07 12:34:23;;;;;;;8.80;4.15;;;6.60;86.20;;;;;;4982571;28;20023;-86
2021/12/07 12:37:07;;;;;;;9.63;3.97;;;6.60;86.10;;;;;;4984457;28;20026;-86
2021/12/07 12:39:51;;;;;;;11.73;4.57;;;6.60;86.00;;;;;;4986118;28;20076;-83
2021/12/07 12:42:40;;;;;;;8.10;3.80;;;6.60;85.90;;;;;;4982950;28;20157;-82
2021/12/07 12:45:19;;;;;;;8.88;3.72;;;6.70;85.90;;;;;;4982044;28;20077;-82
2021/12/07 12:47:53;;;;;;;12.40;4.38;;;6.70;85.90;;;;;;4986550;28;20077;-83
2021/12/07 12:50:23;;;;;;;15.02;4.78;;;6.70;85.70;;;;;;4988972;28;20047;-83
2021/12/07 12:52:52;;;;;;;9.43;4.13;;;6.70;85.50;;;;;;4994523;28;20494;-84
2021/12/07 12:55:38;;;;;;;10.50;3.97;;;6.70;85.00;;;;;;4984361;28;20392;-83
2021/12/07 12:58:08;;;;;;;11.18;4.45;;;6.60;84.80;;;;;;4991158;28;20038;-83
2021/12/07 13:00:56;;;;;;;11.13;3.42;;;6.60;84.70;;;;;;4994640;28;20080;-81
2021/12/07 13:03:22;;;;;;;8.90;3.15;;;6.60;84.70;;;;;;4988126;28;20296;-81
2021/12/07 13:06:00;;;;;;;9.57;3.80;;;6.60;84.70;;;;;;4988929;28;20627;-82
2021/12/07 13:08:25;;;;;;;10.70;4.38;;;6.60;84.60;;;;;;4988515;28;20026;-79
2021/12/07 13:11:00;;;;;;;11.95;4.05;;;6.60;84.50;;;;;;4972749;28;20034;-78
2021/12/07 13:13:31;;;;;;;10.90;4.13;;;6.60;84.10;;;;;;4979477;28;20030;-80
2021/12/07 13:15:57;;;;;;;11.65;3.85;;;6.60;84.10;;;;;;4981127;28;20034;-79
2021/12/07 13:18:31;;;;;;;9.25;3.33;;;6.50;84.00;;;;;;4985244;28;20037;-81
2021/12/07 13:20:57;;;;;;;5.70;2.80;;;6.60;84.10;;;;;;4977843;28;20038;-80
2021/12/07 13:23:29;;;;;;;8.65;3.40;;;6.60;84.10;;;;;;4980711;28;20030;-80
2021/12/07 13:25:55;;;;;;;9.30;2.85;;;6.60;84.20;;;;;;4982865;28;20095;-79
2021/12/07 13:28:27;;;;;;;7.07;2.88;;;6.60;84.10;;;;;;4981130;28;20543;-81
2021/12/07 13:31:14;;;;;;;9.20;3.28;;;6.60;84.10;;;;;;4986172;28;20168;-82
2021/12/07 13:33:43;;;;;;;10.35;3.70;;;6.60;84.00;;;;;;4977988;28;20152;-82
2021/12/07 13:36:32;;;;;;;11.68;3.58;;;6.60;83.90;;;;;;4982418;28;20110;-82
2021/12/07 13:39:05;;;;;;;7.90;3.15;;;6.50;83.60;;;;;;4980926;28;20035;-80
2021/12/07 13:41:31;;;;;;;;;;;6.50;83.70;;;;;;4985429;28;20028;-81
2021/12/07 13:43:56;;;;;;;7.70;3.05;;;6.40;83.60;;;;;;4984858;28;19925;-82
2021/12/07 13:46:25;;;;;;;8.88;3.58;;;6.40;83.60;;;;;;4985843;28;20125;-82
2021/12/07 13:49:06;;;;;;;11.98;3.58;;;6.30;83.30;;;;;;4983405;28;20031;-78
2021/12/07 13:51:33;;;;;;;10.50;4.00;;;6.30;83.50;;;;;;4985884;28;20041;-79
2021/12/07 13:54:00;;;;;;;10.15;3.90;;;6.30;83.60;;;;;;4986880;28;20050;-80
2021/12/07 13:56:31;;;;;;;12.20;4.05;;;6.20;83.40;;;;;;4978695;28;20561;-83
2021/12/07 13:58:59;;;;;;;11.23;4.25;;;6.20;83.40;;;;;;4975972;28;20050;-79
2021/12/07 14:01:26;;;;;;;9.60;4.50;;;6.20;83.30;;;;;;4976573;28;20132;-79
2021/12/07 14:03:56;;;;;;;7.85;3.63;;;6.10;83.40;;;;;;4979313;28;20553;-83
2021/12/07 14:06:22;;;;;;;9.88;4.00;;;6.10;84.10;;;;;;4981928;28;20114;-79
2021/12/07 14:08:49;;;;;;;10.15;3.60;;;6.10;83.60;;;;;;4983009;28;20022;-77
2021/12/07 14:11:16;;;;;;;8.57;3.85;;;6.10;83.70;;;;;;4983956;28;20133;-79
2021/12/07 14:13:46;;;;;;;10.38;4.70;;;6.10;83.50;;;;;;4983593;28;20030;-84
2021/12/07 14:16:14;;;;;;;13.20;4.40;;;6.00;83.40;;;;;;4983245;28;20026;-79
2021/12/07 14:18:45;;;;;;;14.70;4.32;;;6.00;83.60;;;;;;4980058;28;20046;-81
2021/12/07 14:21:12;;;;;;;9.52;3.90;;;5.90;83.70;;;;;;4981656;28;20022;-80
2021/12/07 14:23:40;;;;;;;11.10;4.20;;;5.90;83.70;;;;;;4983223;28;20026;-81
2021/12/07 14:26:19;;;;;;;9.45;4.00;;;5.90;83.70;;;;;;4979927;28;20031;-78
2021/12/07 14:28:50;;;;;;;12.90;3.88;;;5.90;83.80;;;;;;4982183;28;20023;-81
2021/12/07 14:31:25;;;;;;;9.95;3.80;;;5.90;83.90;;;;;;4981915;28;20027;-79
2021/12/07 14:33:57;;;;;;;6.72;3.00;;;5.90;83.90;;;;;;4981088;28;20035;-79
2021/12/07 14:36:31;;;;;;;7.63;3.20;;;5.90;83.90;;;;;;4984836;28;20030;-78
2021/12/07 14:39:01;;;;;;;7.25;3.10;;;5.90;83.90;;;;;;4984571;28;20030;-80
2021/12/07 14:41:28;;;;;;;9.48;3.85;;;5.90;83.90;;;;;;4984622;28;20579;-77
2021/12/07 14:43:58;;;;;;;6.47;2.90;;;5.90;84.00;;;;;;4978062;28;20042;-85